Nome, AK

10:31 AM AKDT on May 25, 2017 (GMT -0800)
Banner Creek | | Change Station

Elev 75 ft 64.64 °N, 165.28 °W | Updated 1 minute ago

Snow
Snow
33.7 °F
Feels Like 34 °F
N
0.0
Wind Variable Wind from SSE
Gusts 6.0 mph

Today
High -- | Low -- °F
--% Chance of Precip.
Yesterday
High -- | Low -- °F
Precip. -- in
Pressure 29.69 in
Visibility 4.0 miles
Clouds Scattered Clouds 600 ft
Mostly Cloudy 1000 ft
Overcast 2900 ft
Windchill 34 °F
Dew Point 32 °F
Humidity 94%
Rainfall 0.02 in
Snow Depth Not available.
5:06 AM 0:52 AM
Waning Crescent, 0% visible
METAR PAOM 251753Z 24012KT 4SM -SN BR SCT006 BKN010 OVC029 00/00 A2968 RMK AO2 SLP052 SNB57 P0000 60000 T00000000 10011 20000 53007 $
Pressure 29.69 in
Visibility 4.0 miles
Clouds Scattered Clouds 600 ft
Mostly Cloudy 1000 ft
Overcast 2900 ft
Windchill 34 °F
Dew Point 32 °F
Humidity 94%
Rainfall 0.02 in
Snow Depth Not available.
5:06 AM 0:52 AM
Waning Crescent, 0% visible
METAR PAOM 251753Z 24012KT 4SM -SN BR SCT006 BKN010 OVC029 00/00 A2968 RMK AO2 SLP052 SNB57 P0000 60000 T00000000 10011 20000 53007 $

Get Severe Weather Alerts

Thanks for signing up!

Be on the lookout for a verification email in your inbox.

You'll start receiving the daily forecast at 6 AM.

×

10-Day Weather Forecast

Almanac

Astronomy

May. 25, 2017 Rise Set
Actual Time
Civil Twilight
Nautical Twilight
Astronomical Twilight
Moon
Length of Visible Light
Length of Day
Tomorrow will be .
, % of the Moon is Illuminated

Today's Extremes

State Highs State Lows

Community

WunderPhotos

Category 6

Welcome to Category 6. This is the collective home for Weather Underground's featured writeups by Dr. Jeff Masters (right), Bob Henson (left), Chris Burt, and other regular contributors.

Nearby

Air Quality

  Air Quality AQ Index Pollutant
Not available.

Snow Depth

Station Depth Elevation

Earthquake Activity

City Distance Mag. Time & Date
Minimum magnitude displayed is 2.5.

Coastal Water Temperatures

Place Temperature

Stations

Nearby Weather Stations

Station Location Temp. Windchill Dew Point Humidity Wind Precip. Elev Updated Type
                   

Watches & Warnings

There are currently no watches in effect.